Social login voor leden:
METAR EBOS 260820Z VRB04KT 9999 FEW017 15/10 Q1017 NOSIG
TAF TAF EBOS 260530Z 2606/2712 04002KT 9000 NSC PROB40 TEMPO 2606/2607 1200 BR BCFG BECMG 2611/2613 04012KT PROB30 TEMPO 2701/2707 4000 SHRA PROB40 TEMPO 2707/2712 BKN011 PROB30 TEMPO 2707/2712 BKN008

NZVC is de eerste Belgische vliegclub met een erkenning als 'Approved Training Organisation (ATO)'

Sinds 3 maart 2015 is de Noordzee Vliegclub Oostende erkend door de Europese Unie en de Belgian Civil Aviation Authority als Approved Training Organisation (ATO). Hierbij zijn we de eerste vliegclub in België die voldoet aan de nieuwste en strengste Europese normen inzake organisatie, kwaliteit en veiligheid bij de opleiding tot Privaat Piloot (PPL).

Opleiding Piloot
Luchtdopen
Visit Us
Agenda
Opleiding Piloot
Doopvluchten
Visit Us
Volgende activiteit
Noordzee Vliegclub - Nieuwpoortsesteenweg 947 8400 Oostende - Tel 059 30 81 50 - Dit e-mailadres wordt beveiligd tegen spambots. JavaScript dient ingeschakeld te zijn om het te bekijken. -

 - Copyright 2014 Alle rechten voorbehouden.